Terminal Aerodrome Forecast
Issued by NWS

Home | Current Version | Previous Version | Text Only | Print | Product List | Glossary On
Versions: 1 2 3 4 5 6 7 8 9 10 11 12 13 14 15 16 17
000
FTUS42 TJSJ 171735
TAFJBQ
TAF
TJBQ 171735Z 1718/1818 08012KT P6SM SCT025 BKN060
     FM172300 08008KT P6SM SCT060
     FM181300 07015G25KT P6SM FEW030 SCT060=

USA.gov is the U.S. government's official web portal to all federal, state and local government web resources and services.